sensor_id;sensor_type;location;lat;lon;timestamp;P1;durP1;ratioP1;P2;durP2;ratioP2
13114;SDS011;6623;52.120;8.660;2023-07-29T00:01:51;1.23;;;1.10;;
13114;SDS011;6623;52.120;8.660;2023-07-29T00:04:18;1.77;;;0.90;;
13114;SDS011;6623;52.120;8.660;2023-07-29T00:06:45;1.20;;;1.10;;
13114;SDS011;6623;52.120;8.660;2023-07-29T00:09:10;1.17;;;1.07;;
13114;SDS011;6623;52.120;8.660;2023-07-29T00:11:36;0.90;;;0.90;;
13114;SDS011;6623;52.120;8.660;2023-07-29T00:14:01;0.90;;;0.90;;
13114;SDS011;6623;52.120;8.660;2023-07-29T00:16:27;1.30;;;1.20;;
13114;SDS011;6623;52.120;8.660;2023-07-29T00:18:53;2.20;;;1.10;;
13114;SDS011;6623;52.120;8.660;2023-07-29T00:21:18;1.07;;;0.87;;
13114;SDS011;6623;52.120;8.660;2023-07-29T00:23:44;0.83;;;0.83;;
13114;SDS011;6623;52.120;8.660;2023-07-29T00:26:10;1.10;;;1.00;;
13114;SDS011;6623;52.120;8.660;2023-07-29T00:28:35;0.90;;;0.90;;
13114;SDS011;6623;52.120;8.660;2023-07-29T00:31:01;0.80;;;0.80;;
13114;SDS011;6623;52.120;8.660;2023-07-29T00:33:27;1.00;;;0.90;;
13114;SDS011;6623;52.120;8.660;2023-07-29T00:35:53;1.07;;;0.90;;
13114;SDS011;6623;52.120;8.660;2023-07-29T00:38:18;0.90;;;0.90;;
13114;SDS011;6623;52.120;8.660;2023-07-29T00:40:44;1.27;;;1.00;;
13114;SDS011;6623;52.120;8.660;2023-07-29T00:43:09;0.93;;;0.93;;
13114;SDS011;6623;52.120;8.660;2023-07-29T00:45:35;1.10;;;0.90;;
13114;SDS011;6623;52.120;8.660;2023-07-29T00:48:01;1.10;;;1.00;;
13114;SDS011;6623;52.120;8.660;2023-07-29T00:50:28;1.20;;;1.00;;
13114;SDS011;6623;52.120;8.660;2023-07-29T00:52:55;1.00;;;1.00;;
13114;SDS011;6623;52.120;8.660;2023-07-29T00:55:21;0.97;;;0.97;;
13114;SDS011;6623;52.120;8.660;2023-07-29T00:57:48;1.00;;;1.00;;
13114;SDS011;6623;52.120;8.660;2023-07-29T01:00:16;0.90;;;0.90;;
13114;SDS011;6623;52.120;8.660;2023-07-29T01:02:42;0.83;;;0.83;;
13114;SDS011;6623;52.120;8.660;2023-07-29T01:05:08;1.07;;;0.90;;
13114;SDS011;6623;52.120;8.660;2023-07-29T01:10:51;0.80;;;0.80;;
13114;SDS011;6623;52.120;8.660;2023-07-29T01:13:59;1.13;;;0.97;;
13114;SDS011;6623;52.120;8.660;2023-07-29T01:16:32;1.00;;;0.90;;
13114;SDS011;6623;52.120;8.660;2023-07-29T01:19:04;0.87;;;0.87;;
13114;SDS011;6623;52.120;8.660;2023-07-29T01:21:34;1.10;;;1.00;;
13114;SDS011;6623;52.120;8.660;2023-07-29T01:24:00;0.77;;;0.77;;
13114;SDS011;6623;52.120;8.660;2023-07-29T01:26:26;0.90;;;0.90;;
13114;SDS011;6623;52.120;8.660;2023-07-29T01:28:54;1.20;;;1.10;;
13114;SDS011;6623;52.120;8.660;2023-07-29T01:31:41;1.10;;;1.00;;
13114;SDS011;6623;52.120;8.660;2023-07-29T01:34:12;1.00;;;0.90;;
13114;SDS011;6623;52.120;8.660;2023-07-29T01:36:42;0.93;;;0.90;;
13114;SDS011;6623;52.120;8.660;2023-07-29T01:39:10;0.90;;;0.90;;
13114;SDS011;6623;52.120;8.660;2023-07-29T01:41:37;1.30;;;1.13;;
13114;SDS011;6623;52.120;8.660;2023-07-29T01:44:03;0.80;;;0.80;;
13114;SDS011;6623;52.120;8.660;2023-07-29T01:46:29;0.80;;;0.80;;
13114;SDS011;6623;52.120;8.660;2023-07-29T01:48:56;0.83;;;0.83;;
13114;SDS011;6623;52.120;8.660;2023-07-29T01:51:22;0.80;;;0.80;;
13114;SDS011;6623;52.120;8.660;2023-07-29T01:53:47;0.80;;;0.80;;
13114;SDS011;6623;52.120;8.660;2023-07-29T01:56:13;1.20;;;0.93;;
13114;SDS011;6623;52.120;8.660;2023-07-29T01:58:38;0.90;;;0.90;;
13114;SDS011;6623;52.120;8.660;2023-07-29T02:01:04;1.23;;;1.00;;
13114;SDS011;6623;52.120;8.660;2023-07-29T02:03:30;1.10;;;1.00;;
13114;SDS011;6623;52.120;8.660;2023-07-29T02:05:55;1.00;;;0.90;;
13114;SDS011;6623;52.120;8.660;2023-07-29T02:08:20;0.80;;;0.80;;
13114;SDS011;6623;52.120;8.660;2023-07-29T02:10:46;0.90;;;0.90;;
13114;SDS011;6623;52.120;8.660;2023-07-29T02:13:13;0.90;;;0.90;;
13114;SDS011;6623;52.120;8.660;2023-07-29T02:15:39;1.00;;;1.00;;
13114;SDS011;6623;52.120;8.660;2023-07-29T02:18:04;0.93;;;0.90;;
13114;SDS011;6623;52.120;8.660;2023-07-29T02:20:31;0.97;;;0.80;;
13114;SDS011;6623;52.120;8.660;2023-07-29T02:22:57;0.80;;;0.80;;
13114;SDS011;6623;52.120;8.660;2023-07-29T02:25:22;1.10;;;1.00;;
13114;SDS011;6623;52.120;8.660;2023-07-29T02:27:48;1.17;;;0.90;;
13114;SDS011;6623;52.120;8.660;2023-07-29T02:30:13;0.80;;;0.80;;
13114;SDS011;6623;52.120;8.660;2023-07-29T02:32:39;0.80;;;0.80;;
13114;SDS011;6623;52.120;8.660;2023-07-29T02:35:04;1.00;;;0.90;;
13114;SDS011;6623;52.120;8.660;2023-07-29T02:37:31;0.80;;;0.80;;
13114;SDS011;6623;52.120;8.660;2023-07-29T02:39:56;0.97;;;0.90;;
13114;SDS011;6623;52.120;8.660;2023-07-29T02:42:22;0.97;;;0.87;;
13114;SDS011;6623;52.120;8.660;2023-07-29T02:44:47;1.00;;;0.90;;
13114;SDS011;6623;52.120;8.660;2023-07-29T02:47:13;1.10;;;1.00;;
13114;SDS011;6623;52.120;8.660;2023-07-29T02:49:38;0.90;;;0.90;;
13114;SDS011;6623;52.120;8.660;2023-07-29T02:52:04;1.00;;;0.90;;
13114;SDS011;6623;52.120;8.660;2023-07-29T02:54:30;1.10;;;1.00;;
13114;SDS011;6623;52.120;8.660;2023-07-29T02:56:55;0.70;;;0.70;;
13114;SDS011;6623;52.120;8.660;2023-07-29T02:59:21;0.83;;;0.77;;
13114;SDS011;6623;52.120;8.660;2023-07-29T03:01:46;1.00;;;0.90;;
13114;SDS011;6623;52.120;8.660;2023-07-29T03:04:12;1.10;;;1.00;;
13114;SDS011;6623;52.120;8.660;2023-07-29T03:06:40;0.80;;;0.80;;
13114;SDS011;6623;52.120;8.660;2023-07-29T03:09:06;0.83;;;0.83;;
13114;SDS011;6623;52.120;8.660;2023-07-29T03:11:31;0.83;;;0.83;;
13114;SDS011;6623;52.120;8.660;2023-07-29T03:13:57;0.80;;;0.80;;
13114;SDS011;6623;52.120;8.660;2023-07-29T03:16:22;1.07;;;0.90;;
13114;SDS011;6623;52.120;8.660;2023-07-29T03:18:48;0.80;;;0.80;;
13114;SDS011;6623;52.120;8.660;2023-07-29T03:21:14;0.93;;;0.90;;
13114;SDS011;6623;52.120;8.660;2023-07-29T03:23:40;0.90;;;0.90;;
13114;SDS011;6623;52.120;8.660;2023-07-29T03:26:05;0.87;;;0.87;;
13114;SDS011;6623;52.120;8.660;2023-07-29T03:28:41;1.43;;;1.00;;
13114;SDS011;6623;52.120;8.660;2023-07-29T03:31:07;1.00;;;0.80;;
13114;SDS011;6623;52.120;8.660;2023-07-29T03:33:33;1.00;;;0.90;;
13114;SDS011;6623;52.120;8.660;2023-07-29T03:35:59;0.80;;;0.80;;
13114;SDS011;6623;52.120;8.660;2023-07-29T03:38:25;1.10;;;1.00;;
13114;SDS011;6623;52.120;8.660;2023-07-29T03:40:51;1.23;;;0.90;;
13114;SDS011;6623;52.120;8.660;2023-07-29T03:43:16;0.80;;;0.80;;
13114;SDS011;6623;52.120;8.660;2023-07-29T03:45:42;1.00;;;0.93;;
13114;SDS011;6623;52.120;8.660;2023-07-29T03:48:07;1.00;;;0.90;;
13114;SDS011;6623;52.120;8.660;2023-07-29T03:50:34;1.10;;;1.00;;
13114;SDS011;6623;52.120;8.660;2023-07-29T03:53:00;1.83;;;1.00;;
13114;SDS011;6623;52.120;8.660;2023-07-29T03:55:29;0.83;;;0.83;;
13114;SDS011;6623;52.120;8.660;2023-07-29T03:57:59;0.90;;;0.90;;
13114;SDS011;6623;52.120;8.660;2023-07-29T04:00:25;1.07;;;0.97;;
13114;SDS011;6623;52.120;8.660;2023-07-29T04:02:51;0.80;;;0.80;;
13114;SDS011;6623;52.120;8.660;2023-07-29T04:05:17;0.97;;;0.80;;
13114;SDS011;6623;52.120;8.660;2023-07-29T04:07:43;0.80;;;0.80;;
13114;SDS011;6623;52.120;8.660;2023-07-29T04:10:09;0.73;;;0.73;;
13114;SDS011;6623;52.120;8.660;2023-07-29T04:12:35;0.80;;;0.70;;
13114;SDS011;6623;52.120;8.660;2023-07-29T04:15:00;1.07;;;0.97;;
13114;SDS011;6623;52.120;8.660;2023-07-29T04:17:26;0.87;;;0.80;;
13114;SDS011;6623;52.120;8.660;2023-07-29T04:19:51;1.80;;;0.90;;
13114;SDS011;6623;52.120;8.660;2023-07-29T04:22:17;0.90;;;0.90;;
13114;SDS011;6623;52.120;8.660;2023-07-29T04:24:42;0.87;;;0.80;;
13114;SDS011;6623;52.120;8.660;2023-07-29T04:27:08;0.70;;;0.70;;
13114;SDS011;6623;52.120;8.660;2023-07-29T04:29:34;1.10;;;0.90;;
13114;SDS011;6623;52.120;8.660;2023-07-29T04:32:03;1.00;;;0.90;;
13114;SDS011;6623;52.120;8.660;2023-07-29T04:34:29;1.00;;;0.90;;
13114;SDS011;6623;52.120;8.660;2023-07-29T04:36:54;0.93;;;0.90;;
13114;SDS011;6623;52.120;8.660;2023-07-29T04:39:20;0.90;;;0.80;;
13114;SDS011;6623;52.120;8.660;2023-07-29T04:41:45;0.80;;;0.80;;
13114;SDS011;6623;52.120;8.660;2023-07-29T04:44:11;1.13;;;1.00;;
13114;SDS011;6623;52.120;8.660;2023-07-29T04:46:37;0.90;;;0.90;;
13114;SDS011;6623;52.120;8.660;2023-07-29T04:49:03;1.00;;;0.90;;
13114;SDS011;6623;52.120;8.660;2023-07-29T04:51:29;0.93;;;0.93;;
13114;SDS011;6623;52.120;8.660;2023-07-29T04:53:56;0.80;;;0.80;;
13114;SDS011;6623;52.120;8.660;2023-07-29T04:56:22;0.87;;;0.83;;
13114;SDS011;6623;52.120;8.660;2023-07-29T04:58:47;0.80;;;0.80;;
13114;SDS011;6623;52.120;8.660;2023-07-29T05:01:13;0.80;;;0.80;;
13114;SDS011;6623;52.120;8.660;2023-07-29T05:03:38;1.00;;;0.90;;
13114;SDS011;6623;52.120;8.660;2023-07-29T05:06:05;1.03;;;0.93;;
13114;SDS011;6623;52.120;8.660;2023-07-29T05:08:30;0.90;;;0.90;;
13114;SDS011;6623;52.120;8.660;2023-07-29T05:10:56;0.70;;;0.70;;
13114;SDS011;6623;52.120;8.660;2023-07-29T05:13:22;0.67;;;0.67;;
13114;SDS011;6623;52.120;8.660;2023-07-29T05:15:48;0.80;;;0.80;;
13114;SDS011;6623;52.120;8.660;2023-07-29T05:18:14;1.00;;;0.90;;
13114;SDS011;6623;52.120;8.660;2023-07-29T05:20:40;0.90;;;0.90;;
13114;SDS011;6623;52.120;8.660;2023-07-29T05:23:06;0.73;;;0.73;;
13114;SDS011;6623;52.120;8.660;2023-07-29T05:25:32;0.93;;;0.90;;
13114;SDS011;6623;52.120;8.660;2023-07-29T05:27:59;0.77;;;0.77;;
13114;SDS011;6623;52.120;8.660;2023-07-29T05:30:25;0.80;;;0.80;;
13114;SDS011;6623;52.120;8.660;2023-07-29T05:32:52;0.80;;;0.80;;
13114;SDS011;6623;52.120;8.660;2023-07-29T05:35:17;1.17;;;1.07;;
13114;SDS011;6623;52.120;8.660;2023-07-29T05:37:43;1.00;;;0.90;;
13114;SDS011;6623;52.120;8.660;2023-07-29T05:40:08;0.80;;;0.80;;
13114;SDS011;6623;52.120;8.660;2023-07-29T05:42:34;1.03;;;0.90;;
13114;SDS011;6623;52.120;8.660;2023-07-29T05:45:00;0.90;;;0.90;;
13114;SDS011;6623;52.120;8.660;2023-07-29T05:47:26;1.00;;;0.80;;
13114;SDS011;6623;52.120;8.660;2023-07-29T05:49:52;0.87;;;0.80;;
13114;SDS011;6623;52.120;8.660;2023-07-29T05:52:17;0.90;;;0.90;;
13114;SDS011;6623;52.120;8.660;2023-07-29T05:54:43;0.80;;;0.80;;
13114;SDS011;6623;52.120;8.660;2023-07-29T05:57:09;0.80;;;0.80;;
13114;SDS011;6623;52.120;8.660;2023-07-29T05:59:36;0.83;;;0.83;;
13114;SDS011;6623;52.120;8.660;2023-07-29T06:02:01;0.80;;;0.80;;
13114;SDS011;6623;52.120;8.660;2023-07-29T06:04:27;0.97;;;0.90;;
13114;SDS011;6623;52.120;8.660;2023-07-29T06:06:53;0.63;;;0.63;;
13114;SDS011;6623;52.120;8.660;2023-07-29T06:09:20;0.80;;;0.80;;
13114;SDS011;6623;52.120;8.660;2023-07-29T06:11:46;1.10;;;0.90;;
13114;SDS011;6623;52.120;8.660;2023-07-29T06:14:12;0.70;;;0.70;;
13114;SDS011;6623;52.120;8.660;2023-07-29T06:16:38;0.83;;;0.83;;
13114;SDS011;6623;52.120;8.660;2023-07-29T06:19:03;0.83;;;0.83;;
13114;SDS011;6623;52.120;8.660;2023-07-29T06:21:29;1.00;;;0.90;;
13114;SDS011;6623;52.120;8.660;2023-07-29T06:23:55;0.97;;;0.87;;
13114;SDS011;6623;52.120;8.660;2023-07-29T06:26:20;0.80;;;0.80;;
13114;SDS011;6623;52.120;8.660;2023-07-29T06:28:46;1.03;;;0.90;;
13114;SDS011;6623;52.120;8.660;2023-07-29T06:31:11;0.70;;;0.70;;
13114;SDS011;6623;52.120;8.660;2023-07-29T06:33:37;0.90;;;0.90;;
13114;SDS011;6623;52.120;8.660;2023-07-29T06:36:02;0.77;;;0.70;;
13114;SDS011;6623;52.120;8.660;2023-07-29T06:38:28;0.90;;;0.90;;
13114;SDS011;6623;52.120;8.660;2023-07-29T06:40:54;0.83;;;0.80;;
13114;SDS011;6623;52.120;8.660;2023-07-29T06:43:19;0.90;;;0.83;;
13114;SDS011;6623;52.120;8.660;2023-07-29T06:45:45;0.70;;;0.70;;
13114;SDS011;6623;52.120;8.660;2023-07-29T06:48:10;1.10;;;0.90;;
13114;SDS011;6623;52.120;8.660;2023-07-29T06:50:36;1.07;;;0.97;;
13114;SDS011;6623;52.120;8.660;2023-07-29T06:53:03;0.80;;;0.80;;
13114;SDS011;6623;52.120;8.660;2023-07-29T06:55:28;0.97;;;0.87;;
13114;SDS011;6623;52.120;8.660;2023-07-29T06:57:54;0.70;;;0.70;;
13114;SDS011;6623;52.120;8.660;2023-07-29T07:00:19;0.70;;;0.70;;
13114;SDS011;6623;52.120;8.660;2023-07-29T07:02:45;0.80;;;0.80;;
13114;SDS011;6623;52.120;8.660;2023-07-29T07:05:10;0.90;;;0.90;;
13114;SDS011;6623;52.120;8.660;2023-07-29T07:07:36;1.00;;;0.90;;
13114;SDS011;6623;52.120;8.660;2023-07-29T07:10:02;0.90;;;0.90;;
13114;SDS011;6623;52.120;8.660;2023-07-29T07:12:28;0.83;;;0.83;;
13114;SDS011;6623;52.120;8.660;2023-07-29T07:14:54;0.70;;;0.70;;
13114;SDS011;6623;52.120;8.660;2023-07-29T07:17:19;0.80;;;0.80;;
13114;SDS011;6623;52.120;8.660;2023-07-29T07:19:45;0.90;;;0.90;;
13114;SDS011;6623;52.120;8.660;2023-07-29T07:22:11;0.77;;;0.77;;
13114;SDS011;6623;52.120;8.660;2023-07-29T07:24:36;0.90;;;0.90;;
13114;SDS011;6623;52.120;8.660;2023-07-29T07:27:02;1.17;;;1.07;;
13114;SDS011;6623;52.120;8.660;2023-07-29T07:29:28;0.80;;;0.80;;
13114;SDS011;6623;52.120;8.660;2023-07-29T07:31:55;1.00;;;0.90;;
13114;SDS011;6623;52.120;8.660;2023-07-29T07:34:21;0.93;;;0.90;;
13114;SDS011;6623;52.120;8.660;2023-07-29T07:36:47;1.10;;;1.10;;
13114;SDS011;6623;52.120;8.660;2023-07-29T07:39:13;1.50;;;0.90;;
13114;SDS011;6623;52.120;8.660;2023-07-29T07:41:38;1.30;;;1.20;;
13114;SDS011;6623;52.120;8.660;2023-07-29T07:44:05;1.43;;;1.33;;
13114;SDS011;6623;52.120;8.660;2023-07-29T07:46:30;1.30;;;1.20;;
13114;SDS011;6623;52.120;8.660;2023-07-29T07:48:56;1.30;;;1.20;;
13114;SDS011;6623;52.120;8.660;2023-07-29T07:51:21;1.40;;;1.30;;
13114;SDS011;6623;52.120;8.660;2023-07-29T07:53:47;2.00;;;1.70;;
13114;SDS011;6623;52.120;8.660;2023-07-29T07:56:13;2.17;;;1.53;;
13114;SDS011;6623;52.120;8.660;2023-07-29T07:58:38;1.70;;;1.60;;
13114;SDS011;6623;52.120;8.660;2023-07-29T08:01:05;1.40;;;1.30;;
13114;SDS011;6623;52.120;8.660;2023-07-29T08:03:31;2.00;;;1.70;;
13114;SDS011;6623;52.120;8.660;2023-07-29T08:05:58;2.10;;;1.90;;
13114;SDS011;6623;52.120;8.660;2023-07-29T08:08:23;2.33;;;1.87;;
13114;SDS011;6623;52.120;8.660;2023-07-29T08:10:50;1.80;;;1.70;;
13114;SDS011;6623;52.120;8.660;2023-07-29T08:13:17;2.37;;;2.17;;
13114;SDS011;6623;52.120;8.660;2023-07-29T08:15:45;2.53;;;1.83;;
13114;SDS011;6623;52.120;8.660;2023-07-29T08:18:12;2.07;;;1.90;;
13114;SDS011;6623;52.120;8.660;2023-07-29T08:20:37;3.10;;;2.07;;
13114;SDS011;6623;52.120;8.660;2023-07-29T08:23:03;1.90;;;1.80;;
13114;SDS011;6623;52.120;8.660;2023-07-29T08:25:29;2.20;;;2.00;;
13114;SDS011;6623;52.120;8.660;2023-07-29T08:27:54;2.20;;;2.00;;
13114;SDS011;6623;52.120;8.660;2023-07-29T08:30:20;2.10;;;1.90;;
13114;SDS011;6623;52.120;8.660;2023-07-29T08:32:45;2.30;;;2.10;;
13114;SDS011;6623;52.120;8.660;2023-07-29T08:35:11;2.07;;;1.90;;
13114;SDS011;6623;52.120;8.660;2023-07-29T08:37:36;1.90;;;1.80;;
13114;SDS011;6623;52.120;8.660;2023-07-29T08:40:02;2.07;;;1.97;;
13114;SDS011;6623;52.120;8.660;2023-07-29T08:42:28;2.10;;;1.90;;
13114;SDS011;6623;52.120;8.660;2023-07-29T08:44:56;2.20;;;2.00;;
13114;SDS011;6623;52.120;8.660;2023-07-29T08:47:32;2.20;;;2.00;;
13114;SDS011;6623;52.120;8.660;2023-07-29T08:49:58;2.10;;;1.90;;
13114;SDS011;6623;52.120;8.660;2023-07-29T08:52:26;2.13;;;1.67;;
13114;SDS011;6623;52.120;8.660;2023-07-29T08:54:52;1.83;;;1.73;;
13114;SDS011;6623;52.120;8.660;2023-07-29T08:57:18;2.00;;;1.80;;
13114;SDS011;6623;52.120;8.660;2023-07-29T08:59:45;2.43;;;1.90;;
13114;SDS011;6623;52.120;8.660;2023-07-29T09:02:11;1.70;;;1.60;;
13114;SDS011;6623;52.120;8.660;2023-07-29T09:04:36;1.90;;;1.80;;
13114;SDS011;6623;52.120;8.660;2023-07-29T09:07:02;2.03;;;1.80;;
13114;SDS011;6623;52.120;8.660;2023-07-29T09:09:29;2.60;;;1.80;;
13114;SDS011;6623;52.120;8.660;2023-07-29T09:11:55;2.10;;;1.90;;
13114;SDS011;6623;52.120;8.660;2023-07-29T09:14:20;1.77;;;1.63;;
13114;SDS011;6623;52.120;8.660;2023-07-29T09:16:46;1.80;;;1.70;;
13114;SDS011;6623;52.120;8.660;2023-07-29T09:19:12;1.77;;;1.67;;
13114;SDS011;6623;52.120;8.660;2023-07-29T09:21:38;1.77;;;1.67;;
13114;SDS011;6623;52.120;8.660;2023-07-29T09:24:05;2.03;;;1.80;;
13114;SDS011;6623;52.120;8.660;2023-07-29T09:26:32;1.60;;;1.50;;
13114;SDS011;6623;52.120;8.660;2023-07-29T09:28:59;2.20;;;2.00;;
13114;SDS011;6623;52.120;8.660;2023-07-29T09:31:25;1.50;;;1.40;;
13114;SDS011;6623;52.120;8.660;2023-07-29T09:33:55;1.70;;;1.60;;
13114;SDS011;6623;52.120;8.660;2023-07-29T09:36:25;2.00;;;1.80;;
13114;SDS011;6623;52.120;8.660;2023-07-29T09:38:52;1.73;;;1.63;;
13114;SDS011;6623;52.120;8.660;2023-07-29T09:41:19;1.77;;;1.67;;
13114;SDS011;6623;52.120;8.660;2023-07-29T09:43:57;1.60;;;1.50;;
13114;SDS011;6623;52.120;8.660;2023-07-29T09:46:23;2.00;;;1.43;;
13114;SDS011;6623;52.120;8.660;2023-07-29T09:48:52;1.70;;;1.60;;
13114;SDS011;6623;52.120;8.660;2023-07-29T09:51:19;1.70;;;1.60;;
13114;SDS011;6623;52.120;8.660;2023-07-29T09:53:46;2.33;;;1.60;;
13114;SDS011;6623;52.120;8.660;2023-07-29T09:56:13;1.60;;;1.50;;
13114;SDS011;6623;52.120;8.660;2023-07-29T09:58:39;1.57;;;1.47;;
13114;SDS011;6623;52.120;8.660;2023-07-29T10:01:06;1.60;;;1.50;;
13114;SDS011;6623;52.120;8.660;2023-07-29T10:03:32;1.70;;;1.53;;
13114;SDS011;6623;52.120;8.660;2023-07-29T10:06:00;1.60;;;1.50;;
13114;SDS011;6623;52.120;8.660;2023-07-29T10:08:28;1.63;;;1.30;;
13114;SDS011;6623;52.120;8.660;2023-07-29T10:10:57;1.80;;;1.37;;
13114;SDS011;6623;52.120;8.660;2023-07-29T10:13:24;1.60;;;1.27;;
13114;SDS011;6623;52.120;8.660;2023-07-29T10:15:51;1.40;;;1.30;;
13114;SDS011;6623;52.120;8.660;2023-07-29T10:18:19;1.40;;;1.30;;
13114;SDS011;6623;52.120;8.660;2023-07-29T10:20:45;1.57;;;1.47;;
13114;SDS011;6623;52.120;8.660;2023-07-29T10:23:13;1.40;;;1.30;;
13114;SDS011;6623;52.120;8.660;2023-07-29T10:25:43;1.63;;;1.30;;
13114;SDS011;6623;52.120;8.660;2023-07-29T10:28:14;1.80;;;1.30;;
13114;SDS011;6623;52.120;8.660;2023-07-29T10:30:41;1.70;;;1.30;;
13114;SDS011;6623;52.120;8.660;2023-07-29T10:33:07;1.37;;;1.20;;
13114;SDS011;6623;52.120;8.660;2023-07-29T10:35:33;2.23;;;1.23;;
13114;SDS011;6623;52.120;8.660;2023-07-29T10:37:59;1.27;;;1.17;;
13114;SDS011;6623;52.120;8.660;2023-07-29T10:40:26;1.20;;;1.10;;
13114;SDS011;6623;52.120;8.660;2023-07-29T10:43:19;1.20;;;1.10;;
13114;SDS011;6623;52.120;8.660;2023-07-29T10:45:56;1.20;;;1.10;;
13114;SDS011;6623;52.120;8.660;2023-07-29T10:48:44;1.30;;;1.20;;
13114;SDS011;6623;52.120;8.660;2023-07-29T10:54:28;1.07;;;1.00;;
13114;SDS011;6623;52.120;8.660;2023-07-29T10:56:48;1.50;;;0.87;;
13114;SDS011;6623;52.120;8.660;2023-07-29T11:01:43;1.30;;;1.20;;
13114;SDS011;6623;52.120;8.660;2023-07-29T11:07:19;1.10;;;1.00;;
13114;SDS011;6623;52.120;8.660;2023-07-29T11:17:35;1.10;;;1.00;;
13114;SDS011;6623;52.120;8.660;2023-07-29T11:20:21;1.23;;;1.10;;
13114;SDS011;6623;52.120;8.660;2023-07-29T11:22:49;1.30;;;1.20;;
13114;SDS011;6623;52.120;8.660;2023-07-29T11:25:15;1.60;;;1.10;;
13114;SDS011;6623;52.120;8.660;2023-07-29T11:27:43;2.27;;;1.17;;
13114;SDS011;6623;52.120;8.660;2023-07-29T11:30:10;1.07;;;1.00;;
13114;SDS011;6623;52.120;8.660;2023-07-29T11:32:37;2.70;;;1.10;;
13114;SDS011;6623;52.120;8.660;2023-07-29T11:37:32;1.50;;;1.40;;
13114;SDS011;6623;52.120;8.660;2023-07-29T11:39:58;1.27;;;1.17;;
13114;SDS011;6623;52.120;8.660;2023-07-29T11:42:24;1.30;;;1.17;;
13114;SDS011;6623;52.120;8.660;2023-07-29T11:44:51;1.33;;;1.00;;
13114;SDS011;6623;52.120;8.660;2023-07-29T11:47:16;1.40;;;1.30;;
13114;SDS011;6623;52.120;8.660;2023-07-29T11:49:42;1.10;;;1.00;;
13114;SDS011;6623;52.120;8.660;2023-07-29T11:52:08;1.10;;;1.00;;
13114;SDS011;6623;52.120;8.660;2023-07-29T11:54:35;1.57;;;1.20;;
13114;SDS011;6623;52.120;8.660;2023-07-29T11:57:07;1.10;;;1.00;;
13114;SDS011;6623;52.120;8.660;2023-07-29T11:59:34;1.40;;;1.13;;
13114;SDS011;6623;52.120;8.660;2023-07-29T12:02:01;1.13;;;1.00;;
13114;SDS011;6623;52.120;8.660;2023-07-29T12:04:35;1.17;;;1.07;;
13114;SDS011;6623;52.120;8.660;2023-07-29T12:07:01;1.20;;;1.00;;
13114;SDS011;6623;52.120;8.660;2023-07-29T12:09:27;1.30;;;1.20;;
13114;SDS011;6623;52.120;8.660;2023-07-29T12:11:53;1.27;;;0.80;;
13114;SDS011;6623;52.120;8.660;2023-07-29T12:14:19;0.90;;;0.90;;
13114;SDS011;6623;52.120;8.660;2023-07-29T12:16:47;0.80;;;0.80;;
13114;SDS011;6623;52.120;8.660;2023-07-29T12:19:13;2.40;;;0.90;;
13114;SDS011;6623;52.120;8.660;2023-07-29T12:21:40;1.37;;;1.00;;
13114;SDS011;6623;52.120;8.660;2023-07-29T12:24:07;1.03;;;0.93;;
13114;SDS011;6623;52.120;8.660;2023-07-29T12:26:32;1.03;;;0.93;;
13114;SDS011;6623;52.120;8.660;2023-07-29T12:28:58;1.37;;;0.93;;
13114;SDS011;6623;52.120;8.660;2023-07-29T12:31:30;2.33;;;0.80;;
13114;SDS011;6623;52.120;8.660;2023-07-29T12:33:57;1.20;;;0.80;;
13114;SDS011;6623;52.120;8.660;2023-07-29T12:36:27;1.10;;;0.93;;
13114;SDS011;6623;52.120;8.660;2023-07-29T12:39:05;0.83;;;0.70;;
13114;SDS011;6623;52.120;8.660;2023-07-29T12:41:30;1.00;;;0.90;;
13114;SDS011;6623;52.120;8.660;2023-07-29T12:43:56;0.80;;;0.70;;
13114;SDS011;6623;52.120;8.660;2023-07-29T12:46:21;0.80;;;0.80;;
13114;SDS011;6623;52.120;8.660;2023-07-29T12:48:47;1.73;;;0.80;;
13114;SDS011;6623;52.120;8.660;2023-07-29T12:51:12;0.70;;;0.70;;
13114;SDS011;6623;52.120;8.660;2023-07-29T12:53:38;0.80;;;0.80;;
13114;SDS011;6623;52.120;8.660;2023-07-29T12:56:04;0.80;;;0.73;;
13114;SDS011;6623;52.120;8.660;2023-07-29T12:58:30;1.07;;;0.90;;
13114;SDS011;6623;52.120;8.660;2023-07-29T13:00:56;0.80;;;0.80;;
13114;SDS011;6623;52.120;8.660;2023-07-29T13:03:21;1.23;;;1.00;;
13114;SDS011;6623;52.120;8.660;2023-07-29T13:05:47;1.23;;;0.93;;
13114;SDS011;6623;52.120;8.660;2023-07-29T13:08:12;0.77;;;0.73;;
13114;SDS011;6623;52.120;8.660;2023-07-29T13:10:38;1.00;;;0.90;;
13114;SDS011;6623;52.120;8.660;2023-07-29T13:13:04;0.97;;;0.87;;
13114;SDS011;6623;52.120;8.660;2023-07-29T13:15:29;0.87;;;0.80;;
13114;SDS011;6623;52.120;8.660;2023-07-29T13:17:55;0.80;;;0.70;;
13114;SDS011;6623;52.120;8.660;2023-07-29T13:20:21;0.87;;;0.70;;
13114;SDS011;6623;52.120;8.660;2023-07-29T13:22:46;0.80;;;0.80;;
13114;SDS011;6623;52.120;8.660;2023-07-29T13:25:12;2.17;;;0.80;;
13114;SDS011;6623;52.120;8.660;2023-07-29T13:27:37;0.63;;;0.63;;
13114;SDS011;6623;52.120;8.660;2023-07-29T13:30:03;0.90;;;0.80;;
13114;SDS011;6623;52.120;8.660;2023-07-29T13:32:29;1.17;;;0.80;;
13114;SDS011;6623;52.120;8.660;2023-07-29T13:34:55;1.13;;;0.90;;
13114;SDS011;6623;52.120;8.660;2023-07-29T13:37:20;1.33;;;0.90;;
13114;SDS011;6623;52.120;8.660;2023-07-29T13:39:46;1.13;;;1.00;;
13114;SDS011;6623;52.120;8.660;2023-07-29T13:42:11;0.80;;;0.80;;
13114;SDS011;6623;52.120;8.660;2023-07-29T13:44:37;1.53;;;0.77;;
13114;SDS011;6623;52.120;8.660;2023-07-29T13:47:02;0.70;;;0.70;;
13114;SDS011;6623;52.120;8.660;2023-07-29T13:49:28;1.30;;;0.90;;
13114;SDS011;6623;52.120;8.660;2023-07-29T13:51:53;1.00;;;0.90;;
13114;SDS011;6623;52.120;8.660;2023-07-29T13:54:19;2.33;;;0.73;;
13114;SDS011;6623;52.120;8.660;2023-07-29T13:56:44;0.70;;;0.70;;
13114;SDS011;6623;52.120;8.660;2023-07-29T13:59:10;0.77;;;0.77;;
13114;SDS011;6623;52.120;8.660;2023-07-29T14:01:35;0.80;;;0.70;;
13114;SDS011;6623;52.120;8.660;2023-07-29T14:04:01;1.83;;;0.80;;
13114;SDS011;6623;52.120;8.660;2023-07-29T14:06:26;0.60;;;0.60;;
13114;SDS011;6623;52.120;8.660;2023-07-29T14:08:52;1.00;;;0.90;;
13114;SDS011;6623;52.120;8.660;2023-07-29T14:11:17;0.70;;;0.70;;
13114;SDS011;6623;52.120;8.660;2023-07-29T14:13:43;0.73;;;0.73;;
13114;SDS011;6623;52.120;8.660;2023-07-29T14:16:08;1.07;;;0.70;;
13114;SDS011;6623;52.120;8.660;2023-07-29T14:18:34;0.93;;;0.90;;
13114;SDS011;6623;52.120;8.660;2023-07-29T14:20:59;0.87;;;0.80;;
13114;SDS011;6623;52.120;8.660;2023-07-29T14:23:25;1.70;;;0.90;;
13114;SDS011;6623;52.120;8.660;2023-07-29T14:25:51;0.80;;;0.80;;
13114;SDS011;6623;52.120;8.660;2023-07-29T14:28:16;0.83;;;0.80;;
13114;SDS011;6623;52.120;8.660;2023-07-29T14:30:42;0.73;;;0.70;;
13114;SDS011;6623;52.120;8.660;2023-07-29T14:33:07;1.03;;;0.80;;
13114;SDS011;6623;52.120;8.660;2023-07-29T14:35:33;1.10;;;0.80;;
13114;SDS011;6623;52.120;8.660;2023-07-29T14:37:59;0.93;;;0.87;;
13114;SDS011;6623;52.120;8.660;2023-07-29T14:40:24;0.70;;;0.70;;
13114;SDS011;6623;52.120;8.660;2023-07-29T14:42:50;1.00;;;0.90;;
13114;SDS011;6623;52.120;8.660;2023-07-29T14:45:15;0.70;;;0.70;;
13114;SDS011;6623;52.120;8.660;2023-07-29T14:47:41;0.80;;;0.70;;
13114;SDS011;6623;52.120;8.660;2023-07-29T14:50:06;0.87;;;0.87;;
13114;SDS011;6623;52.120;8.660;2023-07-29T14:52:32;0.87;;;0.87;;
13114;SDS011;6623;52.120;8.660;2023-07-29T14:54:58;0.80;;;0.80;;
13114;SDS011;6623;52.120;8.660;2023-07-29T14:57:23;1.00;;;0.90;;
13114;SDS011;6623;52.120;8.660;2023-07-29T14:59:49;0.77;;;0.77;;
13114;SDS011;6623;52.120;8.660;2023-07-29T15:02:14;0.80;;;0.80;;
13114;SDS011;6623;52.120;8.660;2023-07-29T15:04:40;0.80;;;0.80;;
13114;SDS011;6623;52.120;8.660;2023-07-29T15:07:05;1.00;;;0.90;;
13114;SDS011;6623;52.120;8.660;2023-07-29T15:09:32;1.00;;;0.90;;
13114;SDS011;6623;52.120;8.660;2023-07-29T15:11:57;0.70;;;0.70;;
13114;SDS011;6623;52.120;8.660;2023-07-29T15:14:23;0.97;;;0.87;;
13114;SDS011;6623;52.120;8.660;2023-07-29T15:16:48;1.90;;;0.80;;
13114;SDS011;6623;52.120;8.660;2023-07-29T15:19:14;1.00;;;0.90;;